createdAt,value
2023-04-18T00:00:44.099Z,9.35
2023-04-18T00:03:16.903Z,9.33
2023-04-18T00:05:48.386Z,9.32
2023-04-18T00:08:16.447Z,9.31
2023-04-18T00:10:44.473Z,9.29
2023-04-18T00:13:12.862Z,9.28
2023-04-18T00:15:43.970Z,9.25
2023-04-18T00:18:21.752Z,9.23
2023-04-18T00:20:50.103Z,9.23
2023-04-18T00:23:18.716Z,9.22
2023-04-18T00:25:46.803Z,9.21
2023-04-18T00:28:15.045Z,9.20
2023-04-18T00:30:42.935Z,9.19
2023-04-18T00:33:11.093Z,9.18
2023-04-18T00:35:39.492Z,9.15
2023-04-18T00:38:08.975Z,9.14
2023-04-18T00:40:38.062Z,9.16
2023-04-18T00:43:08.488Z,9.16
2023-04-18T00:45:37.193Z,9.15
2023-04-18T00:48:05.489Z,9.15
2023-04-18T00:50:33.656Z,9.14
2023-04-18T00:53:02.955Z,9.14
2023-04-18T00:55:31.122Z,9.15
2023-04-18T00:57:59.272Z,9.14
2023-04-18T01:00:27.423Z,9.14
2023-04-18T01:02:56.383Z,9.13
2023-04-18T01:05:27.099Z,9.14
2023-04-18T01:08:01.200Z,9.14
2023-04-18T01:10:31.178Z,9.13
2023-04-18T01:13:16.157Z,9.12
2023-04-18T01:15:49.043Z,9.11
2023-04-18T01:18:18.117Z,9.10
2023-04-18T01:22:02.708Z,9.10
2023-04-18T01:24:36.501Z,9.10
2023-04-18T01:27:04.621Z,9.10
2023-04-18T01:29:35.048Z,9.10
2023-04-18T01:32:04.353Z,9.09
2023-04-18T01:34:32.540Z,9.08
2023-04-18T01:37:00.492Z,9.06
2023-04-18T01:39:28.970Z,9.06
2023-04-18T01:41:57.280Z,9.05
2023-04-18T01:44:25.163Z,9.06
2023-04-18T01:46:53.242Z,9.05
2023-04-18T01:49:21.401Z,9.05
2023-04-18T01:51:50.370Z,9.06
2023-04-18T01:54:18.300Z,9.04
2023-04-18T01:56:46.551Z,9.03
2023-04-18T01:59:14.464Z,8.96
2023-04-18T02:01:42.974Z,9.03
2023-04-18T02:04:11.773Z,9.02
2023-04-18T02:06:39.842Z,9.03
2023-04-18T02:09:07.828Z,9.03
2023-04-18T02:11:36.012Z,9.03
2023-04-18T02:14:04.377Z,9.02
2023-04-18T02:16:32.439Z,9.02
2023-04-18T02:19:01.538Z,9.03
2023-04-18T02:21:30.471Z,9.03
2023-04-18T02:23:58.554Z,9.03
2023-04-18T02:26:26.820Z,9.04
2023-04-18T02:28:58.865Z,9.03
2023-04-18T02:31:27.226Z,9.04
2023-04-18T02:33:55.178Z,9.04
2023-04-18T02:36:23.625Z,9.05
2023-04-18T02:38:51.903Z,9.05
2023-04-18T02:41:21.192Z,9.06
2023-04-18T02:43:49.227Z,9.06
2023-04-18T02:46:18.122Z,9.06
2023-04-18T02:48:48.302Z,9.06
2023-04-18T02:51:16.954Z,9.06
2023-04-18T02:53:45.414Z,9.06
2023-04-18T02:56:17.660Z,9.06
2023-04-18T02:59:18.071Z,9.05
2023-04-18T03:02:21.192Z,9.04
2023-04-18T03:04:53.624Z,9.03
2023-04-18T03:07:21.862Z,9.04
2023-04-18T03:09:50.295Z,9.03
2023-04-18T03:12:23.172Z,9.03
2023-04-18T03:14:51.076Z,9.02
2023-04-18T03:17:19.247Z,9.02
2023-04-18T03:19:49.788Z,9.02
2023-04-18T03:22:20.063Z,9.01
2023-04-18T03:24:55.399Z,9.01
2023-04-18T03:27:26.228Z,9.00
2023-04-18T03:29:54.589Z,8.99
2023-04-18T03:32:23.786Z,8.98
2023-04-18T03:34:51.802Z,8.98
2023-04-18T03:37:20.097Z,8.97
2023-04-18T03:39:51.664Z,8.98
2023-04-18T03:42:19.864Z,8.97
2023-04-18T03:44:47.971Z,8.96
2023-04-18T03:47:17.228Z,8.96
2023-04-18T03:49:48.004Z,8.97
2023-04-18T03:52:16.173Z,8.97
2023-04-18T03:54:44.487Z,8.97
2023-04-18T03:57:12.890Z,8.97
2023-04-18T03:59:41.521Z,8.97
2023-04-18T04:02:09.962Z,8.98
2023-04-18T04:04:38.641Z,8.98
2023-04-18T04:07:06.818Z,8.98
2023-04-18T04:09:35.054Z,8.98
2023-04-18T04:12:03.117Z,8.99
2023-04-18T04:14:31.259Z,8.99
2023-04-18T04:16:59.493Z,8.99
2023-04-18T04:19:27.457Z,8.98
2023-04-18T04:22:05.303Z,8.88
2023-04-18T04:24:33.855Z,9.00
2023-04-18T04:27:03.789Z,9.01
2023-04-18T04:29:33.028Z,9.01
2023-04-18T04:32:01.216Z,9.01
2023-04-18T04:34:35.871Z,9.02
2023-04-18T04:37:05.560Z,9.02
2023-04-18T04:39:37.589Z,9.02
2023-04-18T04:42:25.516Z,9.02
2023-04-18T04:45:03.878Z,9.03
2023-04-18T04:47:32.059Z,9.03
2023-04-18T04:49:59.976Z,9.04
2023-04-18T04:52:28.494Z,9.05
2023-04-18T04:54:56.630Z,9.06
2023-04-18T04:57:26.454Z,9.07
2023-04-18T04:59:54.722Z,9.07
2023-04-18T05:02:23.613Z,9.09
2023-04-18T05:04:51.626Z,9.09
2023-04-18T05:07:19.866Z,9.11
2023-04-18T05:09:47.954Z,9.12
2023-04-18T05:12:15.870Z,9.12
2023-04-18T05:14:43.948Z,9.13
2023-04-18T05:17:11.824Z,9.13
2023-04-18T05:19:40.301Z,9.16
2023-04-18T05:22:08.358Z,9.17
2023-04-18T05:24:36.318Z,9.18
2023-04-18T05:27:04.568Z,9.19
2023-04-18T05:29:32.746Z,8.99
2023-04-18T05:32:01.769Z,9.21
2023-04-18T05:34:30.176Z,9.23
2023-04-18T05:36:58.606Z,9.25
2023-04-18T05:39:26.848Z,9.28
2023-04-18T05:41:54.756Z,9.32
2023-04-18T05:44:24.410Z,9.35
2023-04-18T05:46:52.503Z,9.37
2023-04-18T05:49:20.463Z,9.40
2023-04-18T05:51:53.055Z,9.44
2023-04-18T05:54:21.587Z,9.47
2023-04-18T05:56:49.868Z,9.50
2023-04-18T05:59:18.027Z,9.55
2023-04-18T06:01:45.933Z,9.58
2023-04-18T06:04:14.442Z,9.64
2023-04-18T06:06:42.992Z,9.69
2023-04-18T06:09:11.237Z,9.72
2023-04-18T06:11:39.255Z,9.79
2023-04-18T06:14:08.020Z,9.85
2023-04-18T06:16:37.527Z,9.90
2023-04-18T06:19:05.973Z,9.95
2023-04-18T06:21:34.095Z,9.99
2023-04-18T06:24:02.348Z,10.04
2023-04-18T06:26:32.180Z,10.08
2023-04-18T06:29:00.261Z,10.12
2023-04-18T06:31:28.304Z,10.15
2023-04-18T06:33:57.080Z,10.19
2023-04-18T06:36:27.030Z,10.21
2023-04-18T06:38:55.052Z,10.24
2023-04-18T06:41:23.583Z,10.26
2023-04-18T06:44:02.919Z,10.28
2023-04-18T06:46:33.112Z,10.30
2023-04-18T06:49:02.179Z,10.32
2023-04-18T06:51:30.132Z,10.35
2023-04-18T06:54:00.378Z,10.37
2023-04-18T06:56:29.898Z,10.39
2023-04-18T06:58:57.796Z,10.41
2023-04-18T07:01:26.043Z,10.40
2023-04-18T07:03:54.311Z,10.50
2023-04-18T07:06:22.486Z,10.54
2023-04-18T07:08:52.206Z,10.57
2023-04-18T07:11:23.738Z,10.61
2023-04-18T07:13:51.727Z,10.65
2023-04-18T07:16:20.467Z,10.70
2023-04-18T07:18:48.693Z,10.74
2023-04-18T07:21:16.666Z,10.79
2023-04-18T07:23:47.522Z,10.84
2023-04-18T07:26:16.020Z,10.90
2023-04-18T07:28:44.391Z,10.93
2023-04-18T07:31:14.596Z,10.96
2023-04-18T07:33:43.940Z,11.00
2023-04-18T07:36:12.913Z,11.02
2023-04-18T07:38:40.978Z,11.05
2023-04-18T07:41:09.198Z,11.08
2023-04-18T07:43:38.854Z,11.09
2023-04-18T07:46:08.669Z,11.10
2023-04-18T07:48:36.984Z,11.13
2023-04-18T07:51:05.358Z,11.15
2023-04-18T07:53:33.433Z,11.17
2023-04-18T07:56:03.083Z,11.19
2023-04-18T07:58:31.216Z,11.20
2023-04-18T08:00:59.227Z,11.23
2023-04-18T08:03:28.168Z,11.25
2023-04-18T08:05:56.909Z,11.29
2023-04-18T08:08:29.429Z,11.34
2023-04-18T08:10:57.407Z,11.40
2023-04-18T08:13:25.925Z,11.46
2023-04-18T08:15:56.143Z,11.52
2023-04-18T08:18:24.188Z,11.57
2023-04-18T08:20:52.283Z,11.63
2023-04-18T08:23:20.890Z,11.67
2023-04-18T08:25:49.150Z,11.77
2023-04-18T08:28:17.504Z,11.84
2023-04-18T08:30:49.057Z,11.92
2023-04-18T08:33:18.555Z,12.01
2023-04-18T08:38:44.207Z,12.18
2023-04-18T08:41:12.395Z,12.27
2023-04-18T08:43:40.305Z,12.36
2023-04-18T08:46:09.386Z,12.44
2023-04-18T08:48:38.283Z,12.52
2023-04-18T08:51:06.294Z,12.60
2023-04-18T08:53:34.399Z,12.68
2023-04-18T08:56:03.031Z,12.75
2023-04-18T08:58:33.846Z,12.77
2023-04-18T09:01:02.634Z,12.82
2023-04-18T09:03:41.316Z,12.86
2023-04-18T09:06:21.225Z,12.91
2023-04-18T09:08:59.284Z,12.94
2023-04-18T09:11:29.918Z,12.88
2023-04-18T09:13:59.135Z,13.01
2023-04-18T09:16:28.144Z,13.09
2023-04-18T09:19:18.740Z,13.21
2023-04-18T09:21:57.100Z,13.36
2023-04-18T09:24:27.262Z,13.55
2023-04-18T09:26:57.336Z,13.73
2023-04-18T09:29:49.758Z,13.94
2023-04-18T09:32:27.182Z,14.19
2023-04-18T09:34:58.865Z,14.41
2023-04-18T09:37:28.210Z,14.59
2023-04-18T09:39:56.059Z,14.76
2023-04-18T09:42:26.754Z,14.90
2023-04-18T09:45:06.598Z,15.02
2023-04-18T09:47:36.752Z,15.14
2023-04-18T09:50:12.009Z,15.26
2023-04-18T09:52:42.101Z,15.39
2023-04-18T09:55:19.562Z,15.44
2023-04-18T09:57:49.075Z,15.45
2023-04-18T10:00:24.852Z,15.44
2023-04-18T10:03:10.753Z,15.43
2023-04-18T10:05:41.544Z,15.40
2023-04-18T10:08:10.604Z,15.38
2023-04-18T10:10:39.168Z,15.43
2023-04-18T10:13:13.675Z,15.53
2023-04-18T10:15:44.077Z,15.59
2023-04-18T10:18:18.769Z,15.61
2023-04-18T10:20:47.441Z,15.63
2023-04-18T10:23:31.081Z,15.64
2023-04-18T10:25:59.771Z,15.65
2023-04-18T10:28:41.111Z,15.66
2023-04-18T10:31:09.375Z,15.70
2023-04-18T10:33:42.807Z,15.75
2023-04-18T10:36:13.945Z,15.77
2023-04-18T10:38:50.584Z,15.76
2023-04-18T10:41:27.139Z,15.74
2023-04-18T10:44:08.652Z,15.73
2023-04-18T10:46:44.096Z,15.70
2023-04-18T10:49:20.166Z,15.66
2023-04-18T10:51:49.872Z,15.59
2023-04-18T10:54:32.948Z,15.52
2023-04-18T10:57:03.939Z,15.44
2023-04-18T10:59:34.843Z,15.37
2023-04-18T11:02:18.126Z,15.31
2023-04-18T11:04:57.745Z,15.26
2023-04-18T11:07:38.498Z,15.23
2023-04-18T11:10:09.341Z,15.21
2023-04-18T11:12:39.702Z,15.19
2023-04-18T11:15:14.550Z,15.19
2023-04-18T11:17:43.886Z,15.19
2023-04-18T11:20:15.562Z,15.20
2023-04-18T11:22:49.780Z,15.21
2023-04-18T11:25:28.303Z,15.23
2023-04-18T11:28:00.049Z,15.27
2023-04-18T11:30:36.199Z,15.35
2023-04-18T11:33:09.279Z,15.49
2023-04-18T11:35:42.908Z,15.64
2023-04-18T11:38:14.256Z,15.82
2023-04-18T11:40:49.884Z,15.93
2023-04-18T11:43:22.859Z,15.98
2023-04-18T11:45:59.790Z,16.00
2023-04-18T11:48:42.281Z,16.02
2023-04-18T11:51:38.900Z,16.07
2023-04-18T11:54:36.346Z,16.16
2023-04-18T11:57:06.591Z,16.22
2023-04-18T11:59:38.288Z,16.25
2023-04-18T12:02:16.043Z,16.29
2023-04-18T12:04:56.896Z,16.31
2023-04-18T12:07:41.504Z,16.31
2023-04-18T12:10:23.650Z,16.34
2023-04-18T12:12:54.581Z,16.37
2023-04-18T12:15:28.446Z,16.41
2023-04-18T12:18:02.739Z,16.44
2023-04-18T12:20:46.524Z,16.47
2023-04-18T12:23:31.549Z,16.46
2023-04-18T12:26:07.847Z,16.43
2023-04-18T12:28:36.316Z,16.40
2023-04-18T12:31:07.473Z,16.36
2023-04-18T12:33:36.979Z,16.31
2023-04-18T12:36:06.231Z,16.25
2023-04-18T12:38:35.160Z,16.22
2023-04-18T12:41:03.244Z,16.19
2023-04-18T12:43:40.341Z,16.18
2023-04-18T12:46:08.446Z,16.16
2023-04-18T12:48:36.789Z,16.04
2023-04-18T12:51:04.978Z,16.08
2023-04-18T12:53:33.082Z,16.05
2023-04-18T12:56:01.182Z,16.02
2023-04-18T12:58:29.087Z,16.01
2023-04-18T13:00:57.998Z,16.00
2023-04-18T13:03:29.406Z,16.02
2023-04-18T13:05:57.639Z,16.03
2023-04-18T13:08:26.064Z,16.05
2023-04-18T13:10:54.078Z,16.07
2023-04-18T13:13:22.114Z,16.11
2023-04-18T13:15:51.594Z,16.12
2023-04-18T13:18:19.844Z,16.12
2023-04-18T13:20:47.897Z,16.15
2023-04-18T13:23:15.905Z,16.17
2023-04-18T13:25:44.197Z,16.18
2023-04-18T13:28:12.198Z,16.18
2023-04-18T13:30:40.310Z,16.21
2023-04-18T13:33:08.387Z,16.22
2023-04-18T13:35:37.661Z,16.24
2023-04-18T13:38:06.095Z,16.26
2023-04-18T13:40:34.289Z,16.27
2023-04-18T13:43:02.488Z,16.29
2023-04-18T13:45:30.747Z,16.30
2023-04-18T13:47:59.214Z,16.30
2023-04-18T13:50:27.422Z,16.30
2023-04-18T13:52:55.489Z,16.28
2023-04-18T13:55:24.310Z,16.25
2023-04-18T13:57:55.072Z,16.24
2023-04-18T14:00:23.409Z,16.23
2023-04-18T14:02:51.859Z,16.23
2023-04-18T14:05:19.974Z,16.23
2023-04-18T14:07:48.936Z,16.21
2023-04-18T14:10:17.112Z,16.23
2023-04-18T14:12:46.057Z,16.26
2023-04-18T14:15:14.325Z,16.28
2023-04-18T14:17:45.242Z,16.30
2023-04-18T14:20:15.926Z,16.31
2023-04-18T14:22:44.185Z,16.31
2023-04-18T14:25:14.490Z,16.30
2023-04-18T14:27:43.284Z,16.31
2023-04-18T14:30:11.835Z,16.32
2023-04-18T14:32:40.612Z,16.30
2023-04-18T14:35:10.409Z,16.29
2023-04-18T14:37:38.537Z,16.27
2023-04-18T14:40:08.289Z,16.27
2023-04-18T14:42:36.588Z,16.27
2023-04-18T14:45:07.772Z,16.26
2023-04-18T14:47:35.990Z,16.25
2023-04-18T14:50:04.456Z,16.23
2023-04-18T14:52:32.635Z,16.20
2023-04-18T14:55:00.559Z,16.16
2023-04-18T14:57:31.306Z,16.14
2023-04-18T14:59:59.486Z,16.11
2023-04-18T15:02:27.455Z,16.08
2023-04-18T15:04:56.170Z,16.06
2023-04-18T15:07:24.856Z,16.05
2023-04-18T15:09:52.807Z,16.03
2023-04-18T15:12:20.974Z,16.03
2023-04-18T15:14:52.006Z,16.01
2023-04-18T15:17:20.500Z,15.99
2023-04-18T15:19:49.320Z,15.95
2023-04-18T15:22:20.413Z,15.93
2023-04-18T15:24:52.167Z,15.90
2023-04-18T15:27:20.354Z,15.87
2023-04-18T15:29:48.295Z,15.84
2023-04-18T15:32:18.322Z,15.81
2023-04-18T15:34:46.787Z,15.76
2023-04-18T15:37:14.899Z,15.73
2023-04-18T15:39:42.949Z,15.53
2023-04-18T15:42:11.357Z,15.62
2023-04-18T15:44:39.698Z,15.56
2023-04-18T15:47:12.938Z,15.51
2023-04-18T15:49:43.274Z,15.48
2023-04-18T15:52:11.842Z,15.43
2023-04-18T15:54:43.048Z,15.40
2023-04-18T15:57:12.299Z,15.36
2023-04-18T15:59:40.329Z,15.33
2023-04-18T16:02:09.485Z,15.30
2023-04-18T16:04:37.928Z,15.27
2023-04-18T16:07:06.525Z,15.24
2023-04-18T16:09:34.730Z,15.21
2023-04-18T16:12:03.400Z,15.19
2023-04-18T16:14:32.197Z,15.13
2023-04-18T16:17:00.729Z,15.15
2023-04-18T16:19:28.756Z,15.13
2023-04-18T16:21:57.371Z,15.12
2023-04-18T16:24:25.937Z,15.10
2023-04-18T16:26:55.668Z,15.07
2023-04-18T16:29:23.960Z,15.05
2023-04-18T16:31:52.215Z,15.04
2023-04-18T16:34:20.783Z,15.02
2023-04-18T16:36:50.982Z,15.00
2023-04-18T16:39:19.657Z,14.98
2023-04-18T16:41:47.836Z,14.95
2023-04-18T16:44:16.190Z,14.92
2023-04-18T16:46:44.541Z,14.90
2023-04-18T16:49:12.916Z,14.88
2023-04-18T16:51:40.929Z,14.85
2023-04-18T16:54:09.143Z,14.82
2023-04-18T16:56:37.779Z,14.80
2023-04-18T16:59:09.278Z,14.78
2023-04-18T17:01:37.880Z,14.77
2023-04-18T17:04:06.264Z,14.75
2023-04-18T17:06:34.429Z,14.72
2023-04-18T17:09:02.676Z,14.69
2023-04-18T17:11:32.590Z,14.66
2023-04-18T17:14:00.813Z,14.64
2023-04-18T17:16:28.777Z,14.37
2023-04-18T17:18:57.778Z,14.60
2023-04-18T17:21:27.472Z,14.58
2023-04-18T17:23:56.538Z,14.55
2023-04-18T17:26:26.693Z,14.53
2023-04-18T17:28:54.730Z,14.51
2023-04-18T17:31:22.794Z,14.49
2023-04-18T17:33:50.998Z,14.46
2023-04-18T17:36:19.066Z,14.42
2023-04-18T17:38:49.695Z,14.39
2023-04-18T17:41:20.505Z,14.36
2023-04-18T17:43:51.041Z,14.32
2023-04-18T17:46:19.684Z,14.27
2023-04-18T17:48:47.583Z,14.25
2023-04-18T17:51:19.659Z,14.20
2023-04-18T17:53:47.711Z,14.16
2023-04-18T17:56:15.737Z,14.12
2023-04-18T17:58:43.758Z,14.08
2023-04-18T18:01:19.886Z,14.06
2023-04-18T18:03:48.851Z,14.02
2023-04-18T18:06:17.297Z,13.97
2023-04-18T18:08:45.357Z,13.94
2023-04-18T18:11:13.901Z,13.89
2023-04-18T18:13:42.355Z,13.85
2023-04-18T18:16:10.320Z,13.80
2023-04-18T18:18:39.153Z,13.76
2023-04-18T18:21:07.304Z,13.72
2023-04-18T18:23:35.608Z,13.68
2023-04-18T18:26:04.430Z,13.64
2023-04-18T18:28:33.295Z,13.60
2023-04-18T18:31:01.479Z,13.57
2023-04-18T18:33:29.745Z,13.55
2023-04-18T18:35:58.650Z,13.53
2023-04-18T18:38:27.092Z,13.43
2023-04-18T18:40:55.222Z,13.48
2023-04-18T18:43:26.715Z,13.46
2023-04-18T18:45:54.804Z,13.45
2023-04-18T18:48:24.274Z,13.44
2023-04-18T18:50:52.549Z,13.42
2023-04-18T18:53:20.640Z,13.42
2023-04-18T18:55:48.682Z,13.40
2023-04-18T18:58:16.829Z,13.38
2023-04-18T19:00:47.051Z,13.36
2023-04-18T19:03:17.092Z,13.35
2023-04-18T19:05:47.972Z,13.34
2023-04-18T19:08:15.859Z,13.31
2023-04-18T19:10:44.359Z,13.29
2023-04-18T19:13:12.501Z,13.27
2023-04-18T19:15:40.699Z,13.25
2023-04-18T19:18:08.909Z,13.22
2023-04-18T19:20:39.220Z,13.20
2023-04-18T19:23:07.517Z,13.17
2023-04-18T19:25:36.426Z,13.15
2023-04-18T19:28:06.004Z,13.12
2023-04-18T19:30:33.892Z,13.09
2023-04-18T19:33:02.116Z,13.08
2023-04-18T19:35:30.422Z,13.04
2023-04-18T19:38:01.848Z,13.01
2023-04-18T19:40:30.100Z,12.99
2023-04-18T19:42:58.419Z,12.97
2023-04-18T19:45:26.864Z,12.95
2023-04-18T19:47:55.694Z,12.92
2023-04-18T19:50:23.615Z,12.90
2023-04-18T19:52:51.708Z,12.89
2023-04-18T19:55:19.826Z,12.87
2023-04-18T19:57:48.498Z,12.84
2023-04-18T20:00:16.769Z,12.81
2023-04-18T20:02:45.018Z,12.79
2023-04-18T20:05:16.109Z,12.77
2023-04-18T20:07:44.568Z,12.74
2023-04-18T20:10:13.016Z,12.72
2023-04-18T20:12:41.172Z,12.70
2023-04-18T20:15:09.499Z,12.68
2023-04-18T20:17:37.825Z,12.65
2023-04-18T20:20:09.119Z,12.64
2023-04-18T20:22:38.788Z,12.61
2023-04-18T20:25:09.222Z,12.60
2023-04-18T20:27:37.075Z,12.58
2023-04-18T20:30:06.472Z,12.56
2023-04-18T20:32:36.430Z,12.54
2023-04-18T20:35:04.719Z,12.53
2023-04-18T20:37:36.923Z,12.50
2023-04-18T20:40:08.338Z,12.48
2023-04-18T20:42:37.328Z,12.46
2023-04-18T20:45:06.530Z,12.43
2023-04-18T20:47:34.822Z,12.42
2023-04-18T20:50:03.472Z,12.41
2023-04-18T20:52:33.005Z,12.39
2023-04-18T20:55:01.234Z,12.37
2023-04-18T20:57:29.300Z,12.37
2023-04-18T21:00:02.417Z,12.36
2023-04-18T21:02:30.983Z,12.34
2023-04-18T21:04:59.675Z,12.33
2023-04-18T21:07:31.436Z,12.31
2023-04-18T21:10:00.034Z,12.30
2023-04-18T21:12:29.719Z,12.27
2023-04-18T21:14:57.762Z,12.26
2023-04-18T21:17:26.096Z,12.23
2023-04-18T21:19:55.957Z,12.21
2023-04-18T21:22:23.886Z,12.19
2023-04-18T21:24:51.867Z,12.17
2023-04-18T21:27:19.842Z,12.14
2023-04-18T21:29:48.269Z,12.12
2023-04-18T21:32:16.275Z,12.09
2023-04-18T21:34:44.299Z,12.07
2023-04-18T21:37:12.361Z,12.05
2023-04-18T21:39:40.465Z,12.03
2023-04-18T21:42:08.975Z,12.01
2023-04-18T21:44:37.605Z,11.99
2023-04-18T21:47:05.854Z,11.97
2023-04-18T21:49:35.171Z,11.94
2023-04-18T21:52:03.132Z,11.92
2023-04-18T21:54:31.224Z,11.90
2023-04-18T21:57:00.618Z,11.86
2023-04-18T21:59:28.739Z,11.83
2023-04-18T22:01:57.078Z,11.80
2023-04-18T22:04:26.651Z,11.77
2023-04-18T22:06:55.085Z,11.74
2023-04-18T22:09:23.544Z,11.72
2023-04-18T22:11:51.878Z,11.69
2023-04-18T22:14:20.374Z,11.67
2023-04-18T22:16:50.158Z,11.64
2023-04-18T22:19:18.756Z,11.61
2023-04-18T22:21:46.887Z,11.59
2023-04-18T22:24:15.149Z,11.56
2023-04-18T22:26:43.302Z,11.53
2023-04-18T22:29:11.612Z,11.52
2023-04-18T22:31:42.944Z,11.48
2023-04-18T22:34:10.817Z,11.46
2023-04-18T22:36:39.073Z,11.44
2023-04-18T22:39:07.443Z,11.42
2023-04-18T22:41:35.351Z,11.39
2023-04-18T22:44:03.596Z,11.36
2023-04-18T22:46:32.961Z,11.34
2023-04-18T22:49:01.162Z,11.31
2023-04-18T22:51:29.286Z,11.28
2023-04-18T22:53:57.515Z,11.27
2023-04-18T22:56:25.554Z,11.25
2023-04-18T22:58:53.513Z,11.23
2023-04-18T23:01:21.707Z,11.20
2023-04-18T23:03:49.760Z,11.19
2023-04-18T23:06:17.927Z,11.18
2023-04-18T23:08:46.114Z,11.16
2023-04-18T23:11:14.091Z,11.13
2023-04-18T23:13:42.162Z,11.11
2023-04-18T23:16:10.454Z,11.07
2023-04-18T23:18:38.482Z,11.03
2023-04-18T23:21:06.583Z,10.98
2023-04-18T23:23:34.665Z,10.93
2023-04-18T23:26:02.664Z,10.88
2023-04-18T23:28:30.644Z,10.83
2023-04-18T23:30:58.689Z,10.77
2023-04-18T23:33:26.669Z,10.71
2023-04-18T23:35:54.662Z,10.66
2023-04-18T23:38:22.640Z,10.59
2023-04-18T23:40:50.682Z,10.54
2023-04-18T23:43:18.920Z,10.47
2023-04-18T23:45:46.944Z,10.39
2023-04-18T23:48:14.886Z,10.33
2023-04-18T23:50:50.624Z,10.30
2023-04-18T23:53:22.671Z,10.27
2023-04-18T23:55:51.116Z,10.23
2023-04-18T23:58:19.339Z,10.20
